Time;durP1;ratioP1;P1;durP2;ratioP2;P2;SDS_P1;SDS_P2;PMS_P1;PMS_P2;Temp;Humidity;BMP_temperature;BMP_pressure;BME280_temperature;BME280_humidity;BME280_pressure;Samples;Min_cycle;Max_cycle;Signal;HPM_P1;HPM_P2
2022/10/20 00:05:15;;;;;;;1999.90;999.90;;;13.30;99.90;;;;;;6709988;88;20259;-78
2022/10/20 00:15:16;;;;;;;1999.90;999.90;;;13.40;99.90;;;;;;6719613;88;20207;-78
2022/10/20 00:25:16;;;;;;;1999.90;999.90;;;13.30;99.90;;;;;;6707613;88;21092;-78
2022/10/20 00:35:17;;;;;;;1999.90;999.90;;;13.30;99.90;;;;;;6709105;88;20195;-78
2022/10/20 00:45:20;;;;;;;1999.90;999.90;;;13.20;99.90;;;;;;6706980;88;20202;-78
2022/10/20 00:55:30;;;;;;;1999.90;999.90;;;13.00;99.90;;;;;;6708094;88;20213;-78
2022/10/20 01:05:30;;;;;;;1999.90;999.90;;;12.80;99.90;;;;;;6708010;88;20190;-78
2022/10/20 01:15:53;;;;;;;1999.90;999.90;;;12.60;99.90;;;;;;6704909;88;20207;-78
2022/10/20 01:26:13;;;;;;;1999.90;999.90;;;12.50;99.90;;;;;;6709263;88;21112;-78
2022/10/20 01:36:31;;;;;;;1999.90;999.90;;;12.30;99.90;;;;;;6710410;88;20486;-78
2022/10/20 01:46:33;;;;;;;1999.90;999.90;;;12.20;99.90;;;;;;6708941;88;20688;-78
2022/10/20 01:57:15;;;;;;;1999.90;999.90;;;12.10;99.90;;;;;;6708803;88;20201;-78
2022/10/20 02:07:36;;;;;;;1999.90;999.90;;;12.00;99.90;;;;;;6697495;88;20205;-78
2022/10/20 02:17:39;;;;;;;1999.90;999.90;;;11.90;99.90;;;;;;6707570;88;20228;-78
2022/10/20 02:27:45;;;;;;;1999.90;999.90;;;11.90;99.90;;;;;;6707494;88;20616;-78
2022/10/20 02:37:46;;;;;;;1999.90;999.90;;;11.80;99.90;;;;;;6696057;88;20203;-78
2022/10/20 02:47:47;;;;;;;1999.90;999.90;;;11.70;99.90;;;;;;6708233;88;20225;-78
2022/10/20 02:57:47;;;;;;;1999.90;999.90;;;11.60;99.90;;;;;;6707826;88;20210;-77
2022/10/20 03:07:48;;;;;;;1999.90;999.90;;;11.60;99.90;;;;;;6650386;88;20206;-78
2022/10/20 03:17:48;;;;;;;1999.90;999.90;;;11.50;99.90;;;;;;6699328;88;20186;-77
2022/10/20 03:27:49;;;;;;;1999.90;999.90;;;11.40;99.90;;;;;;6706934;88;20215;-78
2022/10/20 03:37:49;;;;;;;1999.90;999.90;;;11.50;99.90;;;;;;6684039;88;20206;-78
2022/10/20 03:47:50;;;;;;;1999.90;999.90;;;11.40;99.90;;;;;;6717369;88;20199;-78
2022/10/20 03:57:50;;;;;;;1999.90;999.90;;;11.30;99.90;;;;;;6716025;77;20716;-75
2022/10/20 04:07:51;;;;;;;1999.90;999.90;;;11.40;99.90;;;;;;6699718;88;20306;-75
2022/10/20 04:17:52;;;;;;;1999.90;999.90;;;11.30;99.90;;;;;;6702403;88;20636;-74
2022/10/20 04:27:52;;;;;;;1999.90;999.90;;;11.30;99.90;;;;;;6715095;88;20190;-75
2022/10/20 04:37:53;;;;;;;1999.90;999.90;;;11.30;99.90;;;;;;6713893;88;20669;-75
2022/10/20 04:47:53;;;;;;;1999.90;999.90;;;11.30;99.90;;;;;;6646662;88;20190;-76
2022/10/20 04:57:54;;;;;;;1999.90;999.90;;;11.30;99.90;;;;;;6700270;88;21075;-76
2022/10/20 05:07:55;;;;;;;1999.90;999.90;;;11.30;99.90;;;;;;6701384;88;20175;-77
2022/10/20 05:17:56;;;;;;;1999.90;999.90;;;11.30;99.90;;;;;;6667431;88;20226;-75
2022/10/20 05:27:57;;;;;;;1999.90;999.90;;;11.20;99.90;;;;;;6683482;88;20626;-76
2022/10/20 05:37:57;;;;;;;1999.90;999.90;;;11.20;99.90;;;;;;6713742;88;20178;-76
2022/10/20 05:47:58;;;;;;;1999.90;999.90;;;11.20;99.90;;;;;;6695001;88;20305;-76
2022/10/20 05:57:58;;;;;;;1999.90;999.90;;;11.20;99.90;;;;;;6697413;88;20694;-76
2022/10/20 06:07:59;;;;;;;1999.90;999.90;;;11.20;99.90;;;;;;6691776;88;20191;-77
2022/10/20 06:20:59;;;;;;;1999.90;999.90;;;11.20;99.90;;;;;;6785767;86;20788;-77
2022/10/20 06:31:08;;;;;;;1999.90;999.90;;;11.30;99.90;;;;;;6775527;87;20234;-78
2022/10/20 06:41:12;;;;;;;1999.90;999.90;;;11.40;99.90;;;;;;6767190;87;20179;-77
2022/10/20 06:51:14;;;;;;;1999.90;999.90;;;11.40;99.90;;;;;;6782050;87;20232;-77
2022/10/20 07:01:25;;;;;;;1999.90;999.90;;;11.60;99.90;;;;;;6788537;87;20196;-78
2022/10/20 07:11:29;;;;;;;1999.90;999.90;;;11.70;99.90;;;;;;6776950;87;20639;-77
2022/10/20 07:21:31;;;;;;;1999.90;999.90;;;11.80;99.90;;;;;;6774804;87;20217;-77
2022/10/20 07:31:40;;;;;;;1999.90;999.90;;;12.00;99.90;;;;;;6757063;87;20249;-77
2022/10/20 07:41:44;;;;;;;1999.90;999.90;;;12.00;99.90;;;;;;6759619;87;20307;-77
2022/10/20 07:51:44;;;;;;;1999.90;999.90;;;12.10;99.90;;;;;;6769422;87;20199;-77
2022/10/20 08:01:45;;;;;;;1999.90;999.90;;;12.30;99.90;;;;;;6772945;87;20229;-77
2022/10/20 08:11:46;;;;;;;1999.90;999.90;;;12.40;99.90;;;;;;6761603;87;20201;-77
2022/10/20 08:21:46;;;;;;;1999.90;999.90;;;12.40;99.90;;;;;;6744964;88;20246;-77
2022/10/20 08:31:47;;;;;;;1999.90;999.90;;;12.50;99.90;;;;;;6738878;88;20379;-77
2022/10/20 08:41:49;;;;;;;1999.90;999.90;;;12.40;99.90;;;;;;6738407;88;20184;-77
2022/10/20 08:51:50;;;;;;;1999.90;999.90;;;12.30;99.90;;;;;;6738565;88;20216;-77
2022/10/20 09:01:51;;;;;;;1999.90;999.90;;;12.30;99.90;;;;;;6744472;88;20720;-77
2022/10/20 09:11:59;;;;;;;1999.90;999.90;;;12.40;99.90;;;;;;6749673;87;20218;-77
2022/10/20 09:22:04;;;;;;;1999.90;999.90;;;12.50;99.90;;;;;;6748430;88;20180;-77
2022/10/20 09:32:18;;;;;;;1999.90;999.90;;;12.60;99.90;;;;;;6740499;88;20642;-78
2022/10/20 09:42:24;;;;;;;1999.90;999.90;;;12.70;99.90;;;;;;6751665;88;20286;-77
2022/10/20 09:52:29;;;;;;;;;;;12.80;99.90;;;;;;6743193;88;20196;-78
2022/10/20 10:02:31;;;;;;;1999.90;999.90;;;13.00;99.90;;;;;;6752508;88;20047;-77
2022/10/20 10:12:33;;;;;;;1999.90;999.90;;;12.80;99.90;;;;;;6754697;87;20209;-80
2022/10/20 10:22:34;;;;;;;1999.90;999.90;;;12.90;99.90;;;;;;6768938;87;20191;-77
2022/10/20 10:32:42;;;;;;;1999.90;999.90;;;13.00;99.90;;;;;;6769330;87;20238;-77
2022/10/20 10:43:02;;;;;;;1999.90;999.90;;;13.10;99.90;;;;;;6769027;87;20197;-77
2022/10/20 10:53:23;;;;;;;1999.90;999.90;;;13.20;99.90;;;;;;6769613;87;20180;-77
2022/10/20 11:04:14;;;;;;;1999.90;999.90;;;13.30;99.90;;;;;;6735202;88;20371;-77
2022/10/20 11:14:27;;;;;;;1999.90;999.90;;;13.40;99.90;;;;;;6728605;88;20205;-77
2022/10/20 11:25:12;;;;;;;1999.90;999.90;;;13.40;99.90;;;;;;6737845;88;20260;-76
2022/10/20 11:35:27;;;;;;;1999.90;999.90;;;13.50;99.90;;;;;;6726293;88;20215;-77
2022/10/20 11:45:49;;;;;;;1999.90;999.90;;;13.40;99.90;;;;;;6735186;88;20184;-77
2022/10/20 11:56:02;;;;;;;1999.90;999.90;;;13.30;99.90;;;;;;6752285;87;20651;-77
2022/10/20 12:06:45;;;;;;;1999.90;999.90;;;13.10;99.90;;;;;;6735212;88;20189;-77
2022/10/20 12:16:54;;;;;;;1999.90;999.90;;;13.10;99.90;;;;;;6756119;87;20215;-77
2022/10/20 12:27:06;;;;;;;1999.90;999.90;;;13.10;99.90;;;;;;6753348;88;20329;-77
2022/10/20 12:37:16;;;;;;;1999.90;999.90;;;13.10;99.90;;;;;;6741815;87;20208;-77
2022/10/20 12:47:26;;;;;;;1999.90;999.90;;;13.20;99.90;;;;;;6769342;87;20192;-78
2022/10/20 12:57:36;;;;;;;1999.90;999.90;;;13.30;99.90;;;;;;6769245;87;20208;-77
2022/10/20 13:07:49;;;;;;;1999.90;999.90;;;13.40;99.90;;;;;;6754090;87;20263;-77
2022/10/20 13:18:01;;;;;;;1999.90;999.90;;;13.60;99.90;;;;;;6751753;88;20216;-77
2022/10/20 13:28:13;;;;;;;1999.90;999.90;;;13.60;99.90;;;;;;6751936;88;20202;-76
2022/10/20 13:38:30;;;;;;;1999.90;999.90;;;13.60;99.90;;;;;;6756248;88;20183;-76
2022/10/20 13:49:00;;;;;;;1999.90;999.90;;;13.60;99.90;;;;;;6752013;88;20218;-77
2022/10/20 13:59:12;;;;;;;1999.90;999.90;;;13.50;99.90;;;;;;6751914;88;20244;-77
2022/10/20 14:09:19;;;;;;;1999.90;999.90;;;13.60;99.90;;;;;;6750842;88;20187;-77
2022/10/20 14:19:22;;;;;;;1999.90;999.90;;;13.70;99.90;;;;;;6752635;87;20208;-76
2022/10/20 14:29:26;;;;;;;1999.90;999.90;;;13.70;99.90;;;;;;6757864;87;20172;-77
2022/10/20 14:39:39;;;;;;;1999.90;999.90;;;13.70;99.90;;;;;;6752687;88;20275;-77
2022/10/20 14:49:42;;;;;;;1999.90;999.90;;;13.80;99.90;;;;;;6751471;88;20674;-77
2022/10/20 15:00:02;;;;;;;1999.90;999.90;;;13.90;99.90;;;;;;6753770;88;20238;-76
2022/10/20 15:10:12;;;;;;;1999.90;999.90;;;13.80;99.90;;;;;;6732526;88;20223;-77
2022/10/20 15:20:38;;;;;;;1999.90;999.90;;;13.90;99.90;;;;;;6736482;88;20207;-76
2022/10/20 15:30:38;;;;;;;1999.90;999.90;;;14.00;99.90;;;;;;6737164;88;20201;-77
2022/10/20 15:40:39;;;;;;;1999.90;999.90;;;14.00;99.90;;;;;;6738419;88;20189;-76
2022/10/20 15:50:40;;;;;;;1999.90;999.90;;;14.00;99.90;;;;;;6754746;87;20305;-75
2022/10/20 16:00:40;;;;;;;1999.90;999.90;;;14.00;99.90;;;;;;6766973;76;20184;-78
2022/10/20 16:10:42;;;;;;;1999.90;999.90;;;14.00;99.90;;;;;;6764464;87;20267;-81
2022/10/20 16:20:43;;;;;;;1999.90;999.90;;;14.00;99.90;;;;;;6764498;87;20239;-78
2022/10/20 16:30:43;;;;;;;1999.90;999.90;;;13.90;99.90;;;;;;6749660;88;20189;-79
2022/10/20 16:40:54;;;;;;;1999.90;999.90;;;13.80;99.90;;;;;;6750743;88;20500;-79
2022/10/20 16:50:55;;;;;;;1999.90;999.90;;;13.80;99.90;;;;;;6754863;88;20321;-79
2022/10/20 17:01:03;;;;;;;1999.90;999.90;;;13.80;99.90;;;;;;6755973;88;20279;-77
2022/10/20 17:11:05;;;;;;;1999.90;999.90;;;13.80;99.90;;;;;;6764760;87;20582;-78
2022/10/20 17:21:06;;;;;;;1999.90;999.90;;;13.80;99.90;;;;;;6744227;87;20243;-79
2022/10/20 17:31:08;;;;;;;1999.90;999.90;;;13.90;99.90;;;;;;6744003;87;20234;-78
2022/10/20 17:41:14;;;;;;;1999.90;999.90;;;13.90;99.90;;;;;;6748623;88;20242;-79
2022/10/20 17:51:24;;;;;;;1999.90;999.90;;;14.00;99.90;;;;;;6749705;88;20220;-79
2022/10/20 18:01:29;;;;;;;1999.90;999.90;;;14.10;99.90;;;;;;6758483;88;20317;-82
2022/10/20 18:11:31;;;;;;;;;;;14.20;99.90;;;;;;6756269;88;20225;-80
2022/10/20 18:21:32;;;;;;;1999.90;999.90;;;14.20;99.90;;;;;;6770655;87;20043;-80
2022/10/20 18:31:34;;;;;;;1999.90;999.90;;;14.20;99.90;;;;;;6769052;87;20360;-81
2022/10/20 18:41:38;;;;;;;1999.90;999.90;;;14.30;99.90;;;;;;6762566;88;20231;-81
2022/10/20 18:51:39;;;;;;;1999.90;999.90;;;14.30;99.90;;;;;;6761464;88;20219;-80
2022/10/20 19:01:40;;;;;;;1999.90;999.90;;;14.30;99.90;;;;;;6756105;88;20191;-79
2022/10/20 19:11:42;;;;;;;1999.90;999.90;;;14.30;99.90;;;;;;6749115;88;20344;-78
2022/10/20 19:21:42;;;;;;;1999.90;999.90;;;14.20;99.90;;;;;;6763765;88;20214;-77
2022/10/20 19:31:52;;;;;;;1999.90;999.90;;;14.30;99.90;;;;;;6760272;87;20196;-78
2022/10/20 19:41:54;;;;;;;1999.90;999.90;;;14.30;99.90;;;;;;6759959;87;20187;-78
2022/10/20 19:51:55;;;;;;;1999.90;999.90;;;14.30;99.90;;;;;;6764726;87;20241;-79
2022/10/20 20:01:56;;;;;;;1999.90;999.90;;;14.30;99.90;;;;;;6760415;87;20467;-78
2022/10/20 20:11:57;;;;;;;1999.90;999.90;;;14.30;99.90;;;;;;6766882;87;20209;-77
2022/10/20 20:21:57;;;;;;;1999.90;999.90;;;14.40;99.90;;;;;;6763845;88;20176;-79
2022/10/20 20:31:58;;;;;;;1999.90;999.90;;;14.40;99.90;;;;;;6759615;87;20198;-78
2022/10/20 20:41:58;;;;;;;1999.90;999.90;;;14.40;99.90;;;;;;6757090;88;20203;-80
2022/10/20 20:51:59;;;;;;;1999.90;999.90;;;14.40;99.90;;;;;;6761500;88;20192;-78
2022/10/20 21:01:59;;;;;;;1999.90;999.90;;;14.50;99.90;;;;;;6760405;87;20711;-79
2022/10/20 21:12:02;;;;;;;1999.90;999.90;;;14.60;99.90;;;;;;6758945;88;20200;-79
2022/10/20 21:22:03;;;;;;;1999.90;999.90;;;14.50;99.90;;;;;;6761399;88;20666;-78
2022/10/20 21:32:04;;;;;;;1999.90;999.90;;;14.40;99.90;;;;;;6761393;88;20176;-77
2022/10/20 21:42:04;;;;;;;1999.90;999.90;;;14.50;99.90;;;;;;6761806;88;20213;-77
2022/10/20 21:52:05;;;;;;;1999.90;999.90;;;14.60;99.90;;;;;;6752930;88;20224;-78
2022/10/20 22:02:46;;;;;;;1999.90;999.90;;;14.60;99.90;;;;;;6752458;76;20254;-78
2022/10/20 22:12:47;;;;;;;1999.90;999.90;;;14.70;99.90;;;;;;6721766;88;20258;-77
2022/10/20 22:22:47;;;;;;;1999.90;999.90;;;14.80;99.90;;;;;;6730638;88;20601;-76
2022/10/20 22:32:48;;;;;;;1999.90;999.90;;;14.70;99.90;;;;;;6732041;88;20174;-77
2022/10/20 22:42:48;;;;;;;1999.90;999.90;;;14.80;99.90;;;;;;6732908;88;20513;-79
2022/10/20 22:52:49;;;;;;;1999.90;999.90;;;14.70;99.90;;;;;;6727817;88;20193;-78
2022/10/20 23:02:50;;;;;;;1999.90;999.90;;;14.70;99.90;;;;;;6729371;88;20197;-79
2022/10/20 23:12:50;;;;;;;1999.90;999.90;;;14.30;99.90;;;;;;6737934;88;20215;-77
2022/10/20 23:22:51;;;;;;;1999.90;999.90;;;14.10;99.90;;;;;;6739977;88;20185;-77
2022/10/20 23:32:51;;;;;;;1999.90;999.90;;;14.10;99.90;;;;;;6742505;88;20185;-76
2022/10/20 23:42:52;;;;;;;1999.90;999.90;;;14.10;99.90;;;;;;6758116;87;20228;-76
2022/10/20 23:52:52;;;;;;;1999.90;999.90;;;14.00;99.90;;;;;;6744756;87;20192;-77
